aviador You're here:

SBGL Decoded Metar

RIO DE JANEIRO in BRAZIL
Report Time2018-06-24 09:00:00
UTC Time2018-06-24 09:16:07
Flight Rules mvfr MVFR
Wind020° at 05 kt
W.Decomp.*RWY 10: 2.6 kt HW 4.3 kt LCW
RWY 33: 1.6 kt HW 4.7 kt RCW
W.Rank020° ranks 17
Current wind is above 020° avg. (4.5)
Visibility6000 m
Phenomena:N/A
Clouds:N/A
Expected CloudBase > 400 ft AGL from Temp-Dew spread
CeilingNone
Temp21°C (ISA +6)
Dew Point20°C (94% RH)
QNH1017 hPa
Density Alt899 ft
Elevation20 ft
Report Wrong Elevation
Raw Report
SBGL 240900Z 02005KT 6000 NSC 21/20 Q1017=

Extra information for SBGL:More info

Metar Taf Metar & Taf Last 4 Metars F.Rules Stats Wind Profile Meteogram Temp Stats Airport Information Weather charts Add Link Nearby VenuesMetar ALERT Operation Metar Decoded Social comments